createdAt,value
2019-05-18T00:01:44.166Z,49.70
2019-05-18T00:04:14.309Z,49.70
2019-05-18T00:06:44.649Z,49.60
2019-05-18T00:09:14.762Z,49.70
2019-05-18T00:11:45.107Z,49.60
2019-05-18T00:14:15.208Z,49.70
2019-05-18T00:16:45.385Z,49.80
2019-05-18T00:19:15.519Z,49.60
2019-05-18T00:21:45.684Z,49.70
2019-05-18T00:24:15.743Z,50.40
2019-05-18T00:26:45.912Z,49.70
2019-05-18T00:29:15.945Z,49.80
2019-05-18T00:31:46.027Z,50.00
2019-05-18T00:34:16.653Z,49.90
2019-05-18T00:36:46.701Z,49.80
2019-05-18T00:39:16.773Z,50.00
2019-05-18T00:41:46.801Z,49.90
2019-05-18T00:44:16.939Z,50.00
2019-05-18T00:46:47.317Z,50.00
2019-05-18T00:49:17.388Z,50.20
2019-05-18T00:51:48.470Z,50.20
2019-05-18T00:54:18.777Z,50.20
2019-05-18T00:56:48.912Z,50.20
2019-05-18T00:59:18.954Z,50.20
2019-05-18T01:01:49.095Z,50.30
2019-05-18T01:04:19.219Z,50.30
2019-05-18T01:06:49.311Z,50.30
2019-05-18T01:09:20.515Z,50.20
2019-05-18T01:11:50.603Z,50.20
2019-05-18T01:14:20.717Z,50.40
2019-05-18T01:16:50.747Z,50.40
2019-05-18T01:19:20.897Z,50.40
2019-05-18T01:21:51.048Z,50.40
2019-05-18T01:24:21.213Z,50.30
2019-05-18T01:26:51.269Z,50.20
2019-05-18T01:29:21.345Z,50.20
2019-05-18T01:31:51.407Z,50.30
2019-05-18T01:34:21.435Z,50.30
2019-05-18T01:36:51.837Z,50.40
2019-05-18T01:39:33.375Z,50.40
2019-05-18T01:42:03.699Z,50.60
2019-05-18T01:44:34.065Z,50.70
2019-05-18T01:47:04.413Z,50.70
2019-05-18T01:49:34.557Z,50.60
2019-05-18T01:52:04.624Z,50.50
2019-05-18T01:54:34.817Z,50.50
2019-05-18T01:57:04.959Z,50.50
2019-05-18T01:59:35.009Z,50.50
2019-05-18T02:02:05.241Z,50.50
2019-05-18T02:04:35.435Z,50.40
2019-05-18T02:07:05.499Z,50.40
2019-05-18T02:09:35.566Z,50.50
2019-05-18T02:12:06.021Z,50.60
2019-05-18T02:14:36.213Z,50.70
2019-05-18T02:17:06.333Z,50.70
2019-05-18T02:19:36.659Z,50.70
2019-05-18T02:22:07.030Z,50.50
2019-05-18T02:24:38.640Z,50.50
2019-05-18T02:27:08.716Z,50.70
2019-05-18T02:29:38.861Z,50.70
2019-05-18T02:32:09.478Z,50.80
2019-05-18T02:34:39.605Z,50.80
2019-05-18T02:37:10.464Z,50.40
2019-05-18T02:39:40.620Z,50.60
2019-05-18T02:42:10.723Z,50.70
2019-05-18T02:44:40.941Z,51.10
2019-05-18T02:47:11.077Z,50.70
2019-05-18T02:49:41.580Z,50.90
2019-05-18T02:52:11.722Z,50.80
2019-05-18T02:54:41.999Z,50.90
2019-05-18T02:57:12.028Z,50.80
2019-05-18T02:59:42.181Z,50.70
2019-05-18T03:02:12.344Z,50.70
2019-05-18T03:04:42.436Z,50.70
2019-05-18T03:07:12.475Z,50.80
2019-05-18T03:09:42.514Z,50.70
2019-05-18T03:12:12.586Z,50.70
2019-05-18T03:14:42.755Z,50.80
2019-05-18T03:17:12.874Z,50.90
2019-05-18T03:19:43.311Z,51.10
2019-05-18T03:22:13.421Z,51.10
2019-05-18T03:24:43.559Z,51.10
2019-05-18T03:27:14.016Z,51.00
2019-05-18T03:29:44.149Z,51.00
2019-05-18T03:32:14.345Z,51.10
2019-05-18T03:34:44.675Z,51.20
2019-05-18T03:37:14.758Z,51.30
2019-05-18T03:39:45.065Z,51.30
2019-05-18T03:42:15.111Z,51.30
2019-05-18T03:44:45.613Z,51.50
2019-05-18T03:47:16.629Z,51.50
2019-05-18T03:49:46.748Z,51.50
2019-05-18T03:52:16.797Z,51.50
2019-05-18T03:54:46.925Z,51.70
2019-05-18T03:57:17.062Z,51.80
2019-05-18T03:59:47.128Z,51.70
2019-05-18T04:02:17.188Z,51.90
2019-05-18T04:04:47.316Z,51.90
2019-05-18T04:07:17.411Z,52.10
2019-05-18T04:09:47.779Z,52.30
2019-05-18T04:12:17.815Z,52.30
2019-05-18T04:14:47.965Z,52.30
2019-05-18T04:17:17.979Z,52.40
2019-05-18T04:19:48.087Z,52.30
2019-05-18T04:22:18.414Z,52.40
2019-05-18T04:24:48.568Z,52.70
2019-05-18T04:27:18.785Z,52.70
2019-05-18T04:29:48.987Z,53.00
2019-05-18T04:32:19.023Z,53.00
2019-05-18T04:34:49.051Z,53.00
2019-05-18T04:37:19.117Z,53.10
2019-05-18T04:39:49.245Z,53.10
2019-05-18T04:42:19.363Z,53.10
2019-05-18T04:44:49.793Z,53.20
2019-05-18T04:47:19.929Z,53.20
2019-05-18T04:50:04.358Z,53.30
2019-05-18T04:52:21.723Z,53.50
2019-05-18T04:54:52.072Z,53.50
2019-05-18T04:57:22.180Z,53.50
2019-05-18T04:59:52.263Z,53.80
2019-05-18T05:02:22.291Z,54.00
2019-05-18T05:04:56.427Z,53.80
2019-05-18T05:07:24.699Z,53.80
2019-05-18T05:09:54.825Z,53.80
2019-05-18T05:12:24.912Z,53.70
2019-05-18T05:14:55.054Z,53.90
2019-05-18T05:17:25.183Z,54.10
2019-05-18T05:19:55.322Z,54.50
2019-05-18T05:22:25.362Z,54.50
2019-05-18T05:24:55.670Z,54.60
2019-05-18T05:27:26.436Z,54.60
2019-05-18T05:29:56.537Z,54.40
2019-05-18T05:32:26.688Z,54.80
2019-05-18T05:34:56.800Z,55.00
2019-05-18T05:37:26.851Z,55.10
2019-05-18T05:39:56.923Z,55.60
2019-05-18T05:42:27.056Z,55.30
2019-05-18T05:44:57.183Z,55.50
2019-05-18T05:47:27.268Z,55.60
2019-05-18T05:49:57.407Z,55.80
2019-05-18T05:52:27.574Z,55.70
2019-05-18T05:54:57.640Z,55.90
2019-05-18T05:57:28.283Z,55.90
2019-05-18T05:59:58.601Z,56.20
2019-05-18T06:02:28.719Z,56.40
2019-05-18T06:04:58.848Z,56.30
2019-05-18T06:07:28.903Z,56.50
2019-05-18T06:09:59.098Z,56.40
2019-05-18T06:12:29.304Z,56.50
2019-05-18T06:14:59.737Z,57.00
2019-05-18T06:17:29.881Z,57.00
2019-05-18T06:20:00.027Z,57.10
2019-05-18T06:22:30.045Z,57.30
2019-05-18T06:25:00.449Z,57.40
2019-05-18T06:27:30.820Z,57.50
2019-05-18T06:30:00.863Z,57.40
2019-05-18T06:32:31.053Z,57.30
2019-05-18T06:35:01.129Z,57.00
2019-05-18T06:37:32.216Z,57.00
2019-05-18T06:40:02.390Z,57.30
2019-05-18T06:42:32.462Z,57.40
2019-05-18T06:45:02.527Z,57.20
2019-05-18T06:47:32.565Z,57.20
2019-05-18T06:50:02.939Z,57.30
2019-05-18T06:52:33.079Z,57.20
2019-05-18T06:55:03.480Z,57.20
2019-05-18T06:57:34.575Z,57.20
2019-05-18T07:00:05.395Z,57.60
2019-05-18T07:02:36.831Z,57.40
2019-05-18T07:05:07.308Z,57.50
2019-05-18T07:07:37.466Z,56.90
2019-05-18T07:10:08.487Z,57.50
2019-05-18T07:12:38.542Z,57.40
2019-05-18T07:15:10.424Z,56.90
2019-05-18T07:17:40.554Z,56.90
2019-05-18T07:20:11.031Z,56.60
2019-05-18T07:22:41.423Z,56.40
2019-05-18T07:25:12.675Z,56.80
2019-05-18T07:27:42.793Z,57.70
2019-05-18T07:30:13.722Z,57.40
2019-05-18T07:32:43.826Z,56.60
2019-05-18T07:35:14.902Z,56.50
2019-05-18T07:37:45.237Z,56.20
2019-05-18T07:40:15.257Z,57.40
2019-05-18T07:42:45.478Z,57.00
2019-05-18T07:45:15.888Z,56.50
2019-05-18T07:47:46.035Z,56.40
2019-05-18T07:50:17.081Z,57.20
2019-05-18T07:52:47.149Z,56.20
2019-05-18T07:55:17.287Z,56.00
2019-05-18T07:57:47.481Z,56.00
2019-05-18T08:00:17.654Z,55.80
2019-05-18T08:02:47.744Z,55.30
2019-05-18T08:05:17.928Z,55.20
2019-05-18T08:07:48.068Z,56.30
2019-05-18T08:10:22.678Z,56.90
2019-05-18T08:12:52.809Z,56.90
2019-05-18T08:15:22.981Z,58.70
2019-05-18T08:17:53.181Z,58.10
2019-05-18T08:20:27.078Z,56.30
2019-05-18T08:22:57.338Z,58.70
2019-05-18T08:25:27.386Z,56.10
2019-05-18T08:27:57.606Z,55.40
2019-05-18T08:30:27.874Z,55.40
2019-05-18T08:32:59.007Z,56.40
2019-05-18T08:35:29.432Z,57.00
2019-05-18T08:38:00.112Z,57.90
2019-05-18T08:40:30.345Z,56.20
2019-05-18T08:43:00.833Z,56.80
2019-05-18T08:45:31.025Z,55.00
2019-05-18T08:48:01.648Z,54.90
2019-05-18T08:50:31.872Z,54.70
2019-05-18T08:53:02.120Z,54.60
2019-05-18T08:55:32.349Z,55.10
2019-05-18T08:58:02.558Z,56.00
2019-05-18T09:00:32.870Z,57.80
2019-05-18T09:03:03.182Z,57.40
2019-05-18T09:05:33.581Z,56.80
2019-05-18T09:08:04.147Z,57.60
2019-05-18T09:10:34.358Z,56.80
2019-05-18T09:13:04.901Z,55.30
2019-05-18T09:15:35.141Z,54.50
2019-05-18T09:18:05.342Z,54.60
2019-05-18T09:20:35.487Z,55.00
2019-05-18T09:23:05.747Z,55.30
2019-05-18T09:25:36.035Z,57.40
2019-05-18T09:28:06.526Z,56.70
2019-05-18T09:30:36.738Z,56.90
2019-05-18T09:33:06.873Z,56.20
2019-05-18T09:35:37.196Z,55.20
2019-05-18T09:38:07.280Z,56.30
2019-05-18T09:40:37.379Z,56.50
2019-05-18T09:43:07.547Z,55.90
2019-05-18T09:45:37.878Z,56.20
2019-05-18T09:48:08.401Z,57.40
2019-05-18T09:50:38.924Z,56.40
2019-05-18T09:53:09.246Z,56.80
2019-05-18T09:55:39.287Z,56.00
2019-05-18T09:58:09.668Z,55.10
2019-05-18T10:00:39.762Z,55.10
2019-05-18T10:03:11.388Z,53.80
2019-05-18T10:05:41.506Z,54.70
2019-05-18T10:08:11.645Z,54.70
2019-05-18T10:10:41.973Z,54.80
2019-05-18T10:13:12.036Z,54.90
2019-05-18T10:15:42.167Z,54.70
2019-05-18T10:18:12.205Z,55.10
2019-05-18T10:20:42.272Z,54.30
2019-05-18T10:23:13.959Z,53.90
2019-05-18T10:25:44.487Z,54.20
2019-05-18T10:28:14.911Z,53.50
2019-05-18T10:30:45.358Z,53.20
2019-05-18T10:33:15.789Z,54.80
2019-05-18T10:35:45.909Z,54.00
2019-05-18T10:38:16.077Z,54.40
2019-05-18T10:40:46.217Z,53.80
2019-05-18T10:43:16.466Z,55.10
2019-05-18T10:45:46.583Z,55.70
2019-05-18T10:48:16.803Z,55.00
2019-05-18T10:50:46.935Z,53.70
2019-05-18T10:53:28.310Z,53.80
2019-05-18T10:55:48.839Z,53.70
2019-05-18T10:58:18.893Z,53.70
2019-05-18T11:00:49.362Z,53.20
2019-05-18T11:03:20.392Z,53.70
2019-05-18T11:05:50.509Z,54.30
2019-05-18T11:08:20.652Z,52.40
2019-05-18T11:10:50.713Z,51.60
2019-05-18T11:13:20.842Z,52.10
2019-05-18T11:15:50.957Z,52.20
2019-05-18T11:18:21.035Z,51.90
2019-05-18T11:20:51.075Z,50.90
2019-05-18T11:23:21.229Z,52.10
2019-05-18T11:25:51.317Z,51.80
2019-05-18T11:28:21.450Z,47.80
2019-05-18T11:30:51.568Z,47.50
2019-05-18T11:33:21.736Z,48.20
2019-05-18T11:35:52.114Z,48.00
2019-05-18T11:38:22.261Z,49.30
2019-05-18T11:40:52.625Z,49.40
2019-05-18T11:43:22.679Z,48.50
2019-05-18T11:45:52.726Z,49.20
2019-05-18T11:48:22.827Z,49.00
2019-05-18T11:50:52.844Z,47.30
2019-05-18T11:53:23.304Z,48.40
2019-05-18T11:55:53.424Z,46.90
2019-05-18T11:58:23.573Z,46.50
2019-05-18T12:00:53.878Z,47.60
2019-05-18T12:03:25.179Z,47.30
2019-05-18T12:05:55.234Z,48.90
2019-05-18T12:08:25.290Z,49.10
2019-05-18T12:10:56.308Z,47.80
2019-05-18T12:13:26.654Z,48.10
2019-05-18T12:15:56.700Z,47.80
2019-05-18T12:18:26.768Z,47.40
2019-05-18T12:20:56.809Z,47.70
2019-05-18T12:23:27.640Z,47.50
2019-05-18T12:25:57.791Z,45.40
2019-05-18T12:28:28.047Z,46.30
2019-05-18T12:31:01.976Z,46.40
2019-05-18T12:33:30.217Z,47.10
2019-05-18T12:36:00.246Z,46.00
2019-05-18T12:38:30.602Z,45.60
2019-05-18T12:41:01.029Z,46.50
2019-05-18T12:43:31.468Z,46.40
2019-05-18T12:46:01.590Z,45.30
2019-05-18T12:48:31.737Z,46.70
2019-05-18T12:51:01.790Z,47.40
2019-05-18T12:53:31.856Z,48.50
2019-05-18T12:56:01.936Z,48.00
2019-05-18T12:58:32.064Z,48.40
2019-05-18T13:01:02.161Z,46.30
2019-05-18T13:03:32.322Z,45.40
2019-05-18T13:06:04.479Z,45.60
2019-05-18T13:08:35.012Z,45.90
2019-05-18T13:11:05.152Z,46.20
2019-05-18T13:13:35.285Z,45.60
2019-05-18T13:16:05.336Z,46.00
2019-05-18T13:18:35.521Z,43.80
2019-05-18T13:21:05.681Z,42.60
2019-05-18T13:23:35.771Z,42.30
2019-05-18T13:26:06.192Z,44.00
2019-05-18T13:28:36.254Z,43.30
2019-05-18T13:31:06.895Z,42.90
2019-05-18T13:33:36.926Z,41.90
2019-05-18T13:36:07.638Z,41.30
2019-05-18T13:38:38.642Z,41.60
2019-05-18T13:41:08.679Z,42.80
2019-05-18T13:43:38.710Z,40.90
2019-05-18T13:46:10.391Z,41.50
2019-05-18T13:48:40.442Z,43.70
2019-05-18T13:51:10.822Z,41.50
2019-05-18T13:53:40.906Z,40.30
2019-05-18T13:56:10.948Z,40.30
2019-05-18T13:58:41.041Z,40.40
2019-05-18T14:01:11.472Z,39.20
2019-05-18T14:03:41.546Z,39.90
2019-05-18T14:06:11.605Z,39.20
2019-05-18T14:08:41.660Z,40.40
2019-05-18T14:11:13.101Z,41.20
2019-05-18T14:13:43.206Z,41.90
2019-05-18T14:16:13.222Z,41.60
2019-05-18T14:18:43.381Z,42.30
2019-05-18T14:21:14.592Z,40.80
2019-05-18T14:23:44.738Z,39.00
2019-05-18T14:26:14.763Z,38.90
2019-05-18T14:28:44.924Z,39.60
2019-05-18T14:31:15.047Z,39.10
2019-05-18T14:33:45.186Z,39.40
2019-05-18T14:36:15.286Z,37.70
2019-05-18T14:38:45.358Z,38.40
2019-05-18T14:41:15.564Z,37.70
2019-05-18T14:43:45.618Z,36.80
2019-05-18T14:46:15.676Z,37.50
2019-05-18T14:48:46.118Z,36.90
2019-05-18T14:51:16.199Z,36.10
2019-05-18T14:53:46.576Z,37.30
2019-05-18T14:56:16.604Z,37.40
2019-05-18T14:58:46.998Z,37.50
2019-05-18T15:01:17.130Z,37.40
2019-05-18T15:03:47.165Z,37.60
2019-05-18T15:06:17.318Z,37.30
2019-05-18T15:08:47.368Z,36.40
2019-05-18T15:11:17.498Z,36.80
2019-05-18T15:13:47.540Z,36.70
2019-05-18T15:16:17.743Z,36.50
2019-05-18T15:18:47.827Z,36.50
2019-05-18T15:21:17.940Z,37.30
2019-05-18T15:23:48.377Z,38.30
2019-05-18T15:26:18.454Z,38.10
2019-05-18T15:28:48.544Z,38.60
2019-05-18T15:31:18.664Z,39.00
2019-05-18T15:33:49.145Z,39.40
2019-05-18T15:36:19.298Z,39.00
2019-05-18T15:38:49.848Z,39.10
2019-05-18T15:41:20.479Z,40.20
2019-05-18T15:43:50.780Z,39.70
2019-05-18T15:46:20.932Z,39.60
2019-05-18T15:48:51.486Z,39.20
2019-05-18T15:51:22.975Z,38.90
2019-05-18T15:53:53.208Z,39.00
2019-05-18T15:56:23.246Z,38.70
2019-05-18T15:58:53.342Z,38.50
2019-05-18T16:01:23.379Z,38.80
2019-05-18T16:03:53.711Z,38.90
2019-05-18T16:06:23.784Z,38.80
2019-05-18T16:08:53.908Z,38.80
2019-05-18T16:11:24.414Z,39.40
2019-05-18T16:13:54.772Z,39.50
2019-05-18T16:16:24.809Z,39.00
2019-05-18T16:18:54.877Z,39.20
2019-05-18T16:21:24.919Z,38.50
2019-05-18T16:23:55.258Z,38.90
2019-05-18T16:26:25.410Z,38.70
2019-05-18T16:28:55.785Z,38.60
2019-05-18T16:31:25.810Z,38.70
2019-05-18T16:33:55.904Z,39.00
2019-05-18T16:36:25.940Z,38.00
2019-05-18T16:38:56.460Z,38.10
2019-05-18T16:41:26.575Z,38.10
2019-05-18T16:43:56.643Z,37.60
2019-05-18T16:46:27.001Z,38.00
2019-05-18T16:48:57.078Z,38.00
2019-05-18T16:51:27.104Z,38.00
2019-05-18T16:53:57.494Z,38.40
2019-05-18T16:56:35.140Z,38.40
2019-05-18T16:59:00.177Z,38.90
2019-05-18T17:01:30.241Z,38.80
2019-05-18T17:04:01.482Z,38.30
2019-05-18T17:06:31.577Z,37.80
2019-05-18T17:09:01.623Z,38.00
2019-05-18T17:11:33.350Z,38.00
2019-05-18T17:14:03.606Z,38.20
2019-05-18T17:16:33.640Z,38.00
2019-05-18T17:19:03.740Z,38.40
2019-05-18T17:21:33.867Z,38.20
2019-05-18T17:24:03.922Z,38.20
2019-05-18T17:26:34.048Z,38.10
2019-05-18T17:29:04.581Z,38.10
2019-05-18T17:31:34.701Z,38.20
2019-05-18T17:34:04.806Z,38.10
2019-05-18T17:36:35.286Z,38.00
2019-05-18T17:39:07.333Z,37.90
2019-05-18T17:41:37.834Z,37.80
2019-05-18T17:44:08.947Z,37.80
2019-05-18T17:46:39.113Z,38.00
2019-05-18T17:49:24.628Z,38.30
2019-05-18T17:51:41.434Z,38.50
2019-05-18T17:54:11.849Z,38.60
2019-05-18T17:56:42.247Z,38.80
2019-05-18T17:59:12.272Z,38.90
2019-05-18T18:01:42.327Z,38.40
2019-05-18T18:04:12.740Z,38.60
2019-05-18T18:06:42.844Z,38.50
2019-05-18T18:09:12.867Z,38.80
2019-05-18T18:11:42.924Z,39.10
2019-05-18T18:14:12.953Z,39.20
2019-05-18T18:16:43.003Z,39.00
2019-05-18T18:19:13.769Z,38.60
2019-05-18T18:21:43.877Z,39.00
2019-05-18T18:24:14.025Z,39.10
2019-05-18T18:26:44.599Z,39.90
2019-05-18T18:29:14.741Z,40.30
2019-05-18T18:31:44.813Z,40.50
2019-05-18T18:34:15.255Z,41.20
2019-05-18T18:36:45.802Z,41.00
2019-05-18T18:39:16.432Z,41.50
2019-05-18T18:41:46.660Z,42.30
2019-05-18T18:44:17.154Z,42.30
2019-05-18T18:46:47.221Z,41.50
2019-05-18T18:49:17.353Z,42.20
2019-05-18T18:51:48.054Z,41.80
2019-05-18T18:54:18.456Z,42.00
2019-05-18T18:56:48.515Z,42.20
2019-05-18T18:59:18.583Z,42.50
2019-05-18T19:01:49.038Z,42.50
2019-05-18T19:04:19.421Z,42.30
2019-05-18T19:06:49.905Z,42.50
2019-05-18T19:09:20.364Z,42.80
2019-05-18T19:11:50.530Z,43.00
2019-05-18T19:14:20.610Z,41.80
2019-05-18T19:16:50.803Z,42.00
2019-05-18T19:19:21.172Z,42.00
2019-05-18T19:21:51.230Z,41.50
2019-05-18T19:24:24.553Z,42.20
2019-05-18T19:26:54.748Z,42.70
2019-05-18T19:29:24.801Z,42.60
2019-05-18T19:31:54.948Z,43.30
2019-05-18T19:34:25.154Z,43.30
2019-05-18T19:36:55.403Z,42.80
2019-05-18T19:39:25.549Z,43.00
2019-05-18T19:41:55.610Z,43.20
2019-05-18T19:44:25.759Z,43.30
2019-05-18T19:46:57.549Z,43.10
2019-05-18T19:49:27.683Z,43.50
2019-05-18T19:51:57.882Z,43.60
2019-05-18T19:54:28.359Z,43.70
2019-05-18T19:56:58.503Z,43.60
2019-05-18T19:59:28.587Z,43.30
2019-05-18T20:01:58.656Z,43.50
2019-05-18T20:04:28.784Z,43.50
2019-05-18T20:06:58.932Z,43.40
2019-05-18T20:09:28.942Z,43.50
2019-05-18T20:11:59.026Z,43.60
2019-05-18T20:14:29.160Z,43.80
2019-05-18T20:16:59.624Z,43.80
2019-05-18T20:19:38.651Z,44.00
2019-05-18T20:22:02.906Z,44.10
2019-05-18T20:24:33.389Z,44.10
2019-05-18T20:27:03.533Z,44.00
2019-05-18T20:29:33.640Z,44.20
2019-05-18T20:32:03.682Z,44.10
2019-05-18T20:34:33.767Z,44.30
2019-05-18T20:37:03.982Z,44.20
2019-05-18T20:39:34.730Z,44.70
2019-05-18T20:42:04.846Z,44.60
2019-05-18T20:44:35.165Z,44.60
2019-05-18T20:47:05.248Z,44.60
2019-05-18T20:49:35.552Z,44.40
2019-05-18T20:52:05.671Z,44.60
2019-05-18T20:54:35.709Z,44.80
2019-05-18T20:57:05.750Z,44.80
2019-05-18T20:59:35.855Z,44.60
2019-05-18T21:02:05.990Z,44.70
2019-05-18T21:04:36.142Z,45.00
2019-05-18T21:07:06.192Z,45.20
2019-05-18T21:09:36.275Z,45.00
2019-05-18T21:12:06.618Z,45.20
2019-05-18T21:14:37.485Z,45.30
2019-05-18T21:17:07.518Z,45.30
2019-05-18T21:19:37.718Z,45.30
2019-05-18T21:22:07.778Z,45.40
2019-05-18T21:24:38.266Z,45.50
2019-05-18T21:27:08.658Z,45.70
2019-05-18T21:29:39.114Z,45.60
2019-05-18T21:32:09.568Z,45.90
2019-05-18T21:34:39.711Z,45.60
2019-05-18T21:37:10.213Z,45.60
2019-05-18T21:39:40.375Z,45.60
2019-05-18T21:42:11.179Z,46.10
2019-05-18T21:44:41.442Z,45.80
2019-05-18T21:47:11.569Z,45.90
2019-05-18T21:49:41.668Z,46.00
2019-05-18T21:52:11.808Z,46.00
2019-05-18T21:54:42.224Z,46.00
2019-05-18T21:57:12.743Z,46.00
2019-05-18T21:59:42.852Z,45.80
2019-05-18T22:02:13.359Z,45.80
2019-05-18T22:04:43.484Z,45.80
2019-05-18T22:07:13.615Z,45.80
2019-05-18T22:09:44.089Z,45.80
2019-05-18T22:12:14.292Z,45.90
2019-05-18T22:14:44.662Z,46.00
2019-05-18T22:17:14.713Z,45.90
2019-05-18T22:19:45.000Z,46.10
2019-05-18T22:22:15.080Z,46.10
2019-05-18T22:24:45.448Z,46.10
2019-05-18T22:27:15.702Z,46.10
2019-05-18T22:29:45.864Z,46.20
2019-05-18T22:32:17.095Z,46.10
2019-05-18T22:34:47.564Z,46.20
2019-05-18T22:37:17.620Z,46.20
2019-05-18T22:39:47.632Z,46.20
2019-05-18T22:42:17.760Z,46.20
2019-05-18T22:44:47.808Z,46.10
2019-05-18T22:47:17.852Z,45.90
2019-05-18T22:49:47.884Z,46.10
2019-05-18T22:52:17.959Z,46.30
2019-05-18T22:54:47.980Z,46.20
2019-05-18T22:57:18.447Z,46.10
2019-05-18T22:59:48.545Z,46.10
2019-05-18T23:02:18.579Z,46.30
2019-05-18T23:04:48.688Z,46.80
2019-05-18T23:07:18.812Z,46.60
2019-05-18T23:09:48.865Z,46.00
2019-05-18T23:12:18.981Z,46.00
2019-05-18T23:14:49.032Z,46.00
2019-05-18T23:17:19.070Z,46.00
2019-05-18T23:19:49.198Z,46.00
2019-05-18T23:22:19.274Z,46.10
2019-05-18T23:24:49.618Z,45.90
2019-05-18T23:27:19.676Z,46.10
2019-05-18T23:29:50.107Z,46.20
2019-05-18T23:32:20.160Z,46.40
2019-05-18T23:34:50.255Z,46.30
2019-05-18T23:37:20.628Z,46.20
2019-05-18T23:39:51.023Z,46.10
2019-05-18T23:42:21.102Z,46.20
2019-05-18T23:44:51.123Z,46.20
2019-05-18T23:47:21.646Z,46.50
2019-05-18T23:49:51.776Z,46.50
2019-05-18T23:52:21.875Z,46.50
2019-05-18T23:54:51.989Z,46.50
2019-05-18T23:57:22.036Z,46.70
2019-05-18T23:59:52.598Z,46.60
